sensor_id;sensor_type;location;lat;lon;timestamp;P1;durP1;ratioP1;P2;durP2;ratioP2
76786;SDS011;65739;51.482;5.702;2023-04-01T00:01:30;8.32;;;1.58;;
76786;SDS011;65739;51.482;5.702;2023-04-01T00:03:55;11.25;;;1.65;;
76786;SDS011;65739;51.482;5.702;2023-04-01T00:06:21;6.90;;;1.40;;
76786;SDS011;65739;51.482;5.702;2023-04-01T00:08:47;4.13;;;1.20;;
76786;SDS011;65739;51.482;5.702;2023-04-01T00:11:13;5.45;;;1.30;;
76786;SDS011;65739;51.482;5.702;2023-04-01T00:13:40;7.53;;;1.40;;
76786;SDS011;65739;51.482;5.702;2023-04-01T00:16:06;9.98;;;1.45;;
76786;SDS011;65739;51.482;5.702;2023-04-01T00:18:32;3.20;;;1.20;;
76786;SDS011;65739;51.482;5.702;2023-04-01T00:20:58;7.55;;;2.22;;
76786;SDS011;65739;51.482;5.702;2023-04-01T00:23:23;2.92;;;1.50;;
76786;SDS011;65739;51.482;5.702;2023-04-01T00:25:49;3.53;;;1.42;;
76786;SDS011;65739;51.482;5.702;2023-04-01T00:28:16;10.73;;;2.30;;
76786;SDS011;65739;51.482;5.702;2023-04-01T00:30:42;5.20;;;1.60;;
76786;SDS011;65739;51.482;5.702;2023-04-01T00:33:07;4.32;;;1.15;;
76786;SDS011;65739;51.482;5.702;2023-04-01T00:35:33;8.30;;;1.65;;
76786;SDS011;65739;51.482;5.702;2023-04-01T00:37:59;6.13;;;1.70;;
76786;SDS011;65739;51.482;5.702;2023-04-01T00:40:30;7.70;;;1.70;;
76786;SDS011;65739;51.482;5.702;2023-04-01T00:42:58;5.78;;;1.40;;
76786;SDS011;65739;51.482;5.702;2023-04-01T00:45:29;4.60;;;1.40;;
76786;SDS011;65739;51.482;5.702;2023-04-01T00:47:58;2.67;;;1.50;;
76786;SDS011;65739;51.482;5.702;2023-04-01T00:50:29;4.78;;;1.80;;
76786;SDS011;65739;51.482;5.702;2023-04-01T00:52:57;2.53;;;1.20;;
76786;SDS011;65739;51.482;5.702;2023-04-01T00:55:24;6.95;;;1.52;;
76786;SDS011;65739;51.482;5.702;2023-04-01T00:57:55;5.68;;;1.38;;
76786;SDS011;65739;51.482;5.702;2023-04-01T01:00:23;9.32;;;2.03;;
76786;SDS011;65739;51.482;5.702;2023-04-01T01:02:49;6.47;;;1.40;;
76786;SDS011;65739;51.482;5.702;2023-04-01T01:05:16;4.60;;;1.27;;
76786;SDS011;65739;51.482;5.702;2023-04-01T01:10:53;2.20;;;1.10;;
76786;SDS011;65739;51.482;5.702;2023-04-01T01:13:22;1.42;;;1.23;;
76786;SDS011;65739;51.482;5.702;2023-04-01T01:16:06;2.40;;;1.00;;
76786;SDS011;65739;51.482;5.702;2023-04-01T01:18:53;3.22;;;1.20;;
76786;SDS011;65739;51.482;5.702;2023-04-01T01:26:40;3.72;;;1.25;;
76786;SDS011;65739;51.482;5.702;2023-04-01T01:29:40;3.72;;;1.20;;
76786;SDS011;65739;51.482;5.702;2023-04-01T01:32:19;4.75;;;1.20;;
76786;SDS011;65739;51.482;5.702;2023-04-01T01:35:09;3.10;;;0.90;;
76786;SDS011;65739;51.482;5.702;2023-04-01T01:37:41;3.50;;;1.25;;
76786;SDS011;65739;51.482;5.702;2023-04-01T01:40:10;2.50;;;1.27;;
76786;SDS011;65739;51.482;5.702;2023-04-01T01:42:39;1.23;;;1.10;;
76786;SDS011;65739;51.482;5.702;2023-04-01T01:45:08;3.00;;;1.13;;
76786;SDS011;65739;51.482;5.702;2023-04-01T01:47:35;1.90;;;1.42;;
76786;SDS011;65739;51.482;5.702;2023-04-01T01:50:02;2.78;;;1.38;;
76786;SDS011;65739;51.482;5.702;2023-04-01T01:52:30;1.80;;;1.30;;
76786;SDS011;65739;51.482;5.702;2023-04-01T01:54:56;2.88;;;1.33;;
76786;SDS011;65739;51.482;5.702;2023-04-01T01:57:24;3.42;;;1.42;;
76786;SDS011;65739;51.482;5.702;2023-04-01T01:59:54;3.35;;;1.48;;
76786;SDS011;65739;51.482;5.702;2023-04-01T02:02:23;2.60;;;1.50;;
76786;SDS011;65739;51.482;5.702;2023-04-01T02:04:50;2.92;;;1.73;;
76786;SDS011;65739;51.482;5.702;2023-04-01T02:07:19;2.38;;;1.90;;
76786;SDS011;65739;51.482;5.702;2023-04-01T02:09:50;2.03;;;1.83;;
76786;SDS011;65739;51.482;5.702;2023-04-01T02:12:16;4.97;;;2.10;;
76786;SDS011;65739;51.482;5.702;2023-04-01T02:17:33;3.92;;;2.00;;
76786;SDS011;65739;51.482;5.702;2023-04-01T02:20:04;3.85;;;2.13;;
76786;SDS011;65739;51.482;5.702;2023-04-01T02:22:41;3.38;;;2.15;;
76786;SDS011;65739;51.482;5.702;2023-04-01T02:25:12;2.63;;;2.20;;
76786;SDS011;65739;51.482;5.702;2023-04-01T02:27:44;4.55;;;2.53;;
76786;SDS011;65739;51.482;5.702;2023-04-01T02:30:12;4.70;;;2.75;;
76786;SDS011;65739;51.482;5.702;2023-04-01T02:32:39;7.82;;;4.00;;
76786;SDS011;65739;51.482;5.702;2023-04-01T02:35:06;6.82;;;3.97;;
76786;SDS011;65739;51.482;5.702;2023-04-01T02:37:35;4.13;;;3.53;;
76786;SDS011;65739;51.482;5.702;2023-04-01T02:40:02;5.95;;;4.70;;
76786;SDS011;65739;51.482;5.702;2023-04-01T02:42:32;5.55;;;4.50;;
76786;SDS011;65739;51.482;5.702;2023-04-01T02:44:58;8.63;;;4.82;;
76786;SDS011;65739;51.482;5.702;2023-04-01T02:47:24;7.78;;;6.03;;
76786;SDS011;65739;51.482;5.702;2023-04-01T02:49:50;10.93;;;5.97;;
76786;SDS011;65739;51.482;5.702;2023-04-01T02:52:15;9.25;;;6.05;;
76786;SDS011;65739;51.482;5.702;2023-04-01T02:54:41;8.07;;;5.85;;
76786;SDS011;65739;51.482;5.702;2023-04-01T02:57:06;7.38;;;6.07;;
76786;SDS011;65739;51.482;5.702;2023-04-01T02:59:32;8.68;;;6.53;;
76786;SDS011;65739;51.482;5.702;2023-04-01T03:01:58;10.32;;;6.13;;
76786;SDS011;65739;51.482;5.702;2023-04-01T03:04:23;8.48;;;6.60;;
76786;SDS011;65739;51.482;5.702;2023-04-01T03:06:49;8.63;;;6.57;;
76786;SDS011;65739;51.482;5.702;2023-04-01T03:09:14;10.73;;;6.95;;
76786;SDS011;65739;51.482;5.702;2023-04-01T03:11:40;10.93;;;6.47;;
76786;SDS011;65739;51.482;5.702;2023-04-01T03:14:06;10.45;;;6.57;;
76786;SDS011;65739;51.482;5.702;2023-04-01T03:16:32;9.35;;;5.70;;
76786;SDS011;65739;51.482;5.702;2023-04-01T03:18:57;10.32;;;6.00;;
76786;SDS011;65739;51.482;5.702;2023-04-01T03:21:24;7.93;;;5.90;;
76786;SDS011;65739;51.482;5.702;2023-04-01T03:23:50;7.47;;;5.38;;
76786;SDS011;65739;51.482;5.702;2023-04-01T03:26:16;11.30;;;5.78;;
76786;SDS011;65739;51.482;5.702;2023-04-01T03:28:42;9.85;;;6.30;;
76786;SDS011;65739;51.482;5.702;2023-04-01T03:31:08;8.02;;;5.90;;
76786;SDS011;65739;51.482;5.702;2023-04-01T03:33:35;8.32;;;5.32;;
76786;SDS011;65739;51.482;5.702;2023-04-01T03:36:01;7.57;;;5.20;;
76786;SDS011;65739;51.482;5.702;2023-04-01T03:38:31;6.75;;;5.03;;
76786;SDS011;65739;51.482;5.702;2023-04-01T03:40:57;9.05;;;5.60;;
76786;SDS011;65739;51.482;5.702;2023-04-01T03:43:23;8.38;;;5.55;;
76786;SDS011;65739;51.482;5.702;2023-04-01T03:45:49;8.52;;;5.65;;
76786;SDS011;65739;51.482;5.702;2023-04-01T03:48:16;8.57;;;5.93;;
76786;SDS011;65739;51.482;5.702;2023-04-01T03:50:41;8.98;;;6.72;;
76786;SDS011;65739;51.482;5.702;2023-04-01T03:53:07;8.82;;;6.60;;
76786;SDS011;65739;51.482;5.702;2023-04-01T03:55:33;12.43;;;6.53;;
76786;SDS011;65739;51.482;5.702;2023-04-01T03:58:00;7.72;;;6.20;;
76786;SDS011;65739;51.482;5.702;2023-04-01T04:00:27;8.63;;;5.78;;
76786;SDS011;65739;51.482;5.702;2023-04-01T04:02:56;10.40;;;7.35;;
76786;SDS011;65739;51.482;5.702;2023-04-01T04:05:22;8.02;;;5.93;;
76786;SDS011;65739;51.482;5.702;2023-04-01T04:07:49;10.18;;;6.90;;
76786;SDS011;65739;51.482;5.702;2023-04-01T04:10:14;8.13;;;6.28;;
76786;SDS011;65739;51.482;5.702;2023-04-01T04:12:40;8.48;;;6.82;;
76786;SDS011;65739;51.482;5.702;2023-04-01T04:15:06;11.15;;;6.68;;
76786;SDS011;65739;51.482;5.702;2023-04-01T04:17:32;8.18;;;6.10;;
76786;SDS011;65739;51.482;5.702;2023-04-01T04:19:58;10.60;;;6.80;;
76786;SDS011;65739;51.482;5.702;2023-04-01T04:22:23;8.68;;;6.25;;
76786;SDS011;65739;51.482;5.702;2023-04-01T04:24:49;8.63;;;7.28;;
76786;SDS011;65739;51.482;5.702;2023-04-01T04:27:14;7.10;;;6.35;;
76786;SDS011;65739;51.482;5.702;2023-04-01T04:29:40;8.05;;;6.78;;
76786;SDS011;65739;51.482;5.702;2023-04-01T04:32:06;7.32;;;6.40;;
76786;SDS011;65739;51.482;5.702;2023-04-01T04:34:31;6.90;;;6.07;;
76786;SDS011;65739;51.482;5.702;2023-04-01T04:36:57;9.15;;;6.80;;
76786;SDS011;65739;51.482;5.702;2023-04-01T04:39:23;8.70;;;6.40;;
76786;SDS011;65739;51.482;5.702;2023-04-01T04:41:48;8.18;;;6.32;;
76786;SDS011;65739;51.482;5.702;2023-04-01T04:44:14;11.05;;;7.10;;
76786;SDS011;65739;51.482;5.702;2023-04-01T04:46:40;12.23;;;7.28;;
76786;SDS011;65739;51.482;5.702;2023-04-01T04:49:06;9.88;;;7.40;;
76786;SDS011;65739;51.482;5.702;2023-04-01T04:51:31;8.13;;;6.70;;
76786;SDS011;65739;51.482;5.702;2023-04-01T04:53:59;13.30;;;7.00;;
76786;SDS011;65739;51.482;5.702;2023-04-01T04:56:25;12.10;;;6.88;;
76786;SDS011;65739;51.482;5.702;2023-04-01T04:58:51;9.57;;;6.80;;
76786;SDS011;65739;51.482;5.702;2023-04-01T05:01:17;9.38;;;6.82;;
76786;SDS011;65739;51.482;5.702;2023-04-01T05:03:43;10.77;;;6.90;;
76786;SDS011;65739;51.482;5.702;2023-04-01T05:06:11;8.82;;;6.47;;
76786;SDS011;65739;51.482;5.702;2023-04-01T05:08:38;8.25;;;6.13;;
76786;SDS011;65739;51.482;5.702;2023-04-01T05:11:06;7.63;;;5.78;;
76786;SDS011;65739;51.482;5.702;2023-04-01T05:13:34;7.80;;;6.10;;
76786;SDS011;65739;51.482;5.702;2023-04-01T05:16:00;9.13;;;6.53;;
76786;SDS011;65739;51.482;5.702;2023-04-01T05:18:26;7.45;;;5.68;;
76786;SDS011;65739;51.482;5.702;2023-04-01T05:20:52;8.02;;;5.68;;
76786;SDS011;65739;51.482;5.702;2023-04-01T05:23:19;7.85;;;5.22;;
76786;SDS011;65739;51.482;5.702;2023-04-01T05:25:46;6.80;;;5.25;;
76786;SDS011;65739;51.482;5.702;2023-04-01T05:28:16;7.80;;;5.40;;
76786;SDS011;65739;51.482;5.702;2023-04-01T05:30:42;8.27;;;5.72;;
76786;SDS011;65739;51.482;5.702;2023-04-01T05:33:09;7.15;;;5.10;;
76786;SDS011;65739;51.482;5.702;2023-04-01T05:35:35;8.30;;;5.68;;
76786;SDS011;65739;51.482;5.702;2023-04-01T05:38:00;5.97;;;4.85;;
76786;SDS011;65739;51.482;5.702;2023-04-01T05:40:27;5.85;;;4.53;;
76786;SDS011;65739;51.482;5.702;2023-04-01T05:42:53;7.35;;;4.25;;
76786;SDS011;65739;51.482;5.702;2023-04-01T05:45:18;8.10;;;4.68;;
76786;SDS011;65739;51.482;5.702;2023-04-01T05:47:44;5.35;;;4.35;;
76786;SDS011;65739;51.482;5.702;2023-04-01T05:50:10;5.40;;;4.50;;
76786;SDS011;65739;51.482;5.702;2023-04-01T05:52:35;6.05;;;4.40;;
76786;SDS011;65739;51.482;5.702;2023-04-01T05:55:02;6.05;;;4.55;;
76786;SDS011;65739;51.482;5.702;2023-04-01T05:57:28;7.03;;;4.68;;
76786;SDS011;65739;51.482;5.702;2023-04-01T05:59:53;4.20;;;3.75;;
76786;SDS011;65739;51.482;5.702;2023-04-01T06:02:19;4.93;;;4.10;;
76786;SDS011;65739;51.482;5.702;2023-04-01T06:04:44;4.97;;;3.35;;
76786;SDS011;65739;51.482;5.702;2023-04-01T06:07:11;4.72;;;3.80;;
76786;SDS011;65739;51.482;5.702;2023-04-01T06:09:41;4.50;;;3.95;;
76786;SDS011;65739;51.482;5.702;2023-04-01T06:14:56;5.10;;;3.67;;
76786;SDS011;65739;51.482;5.702;2023-04-01T06:20:12;5.03;;;4.00;;
76786;SDS011;65739;51.482;5.702;2023-04-01T06:28:21;10.38;;;5.88;;
76786;SDS011;65739;51.482;5.702;2023-04-01T06:34:05;9.00;;;5.78;;
76786;SDS011;65739;51.482;5.702;2023-04-01T06:40:12;10.27;;;6.10;;
76786;SDS011;65739;51.482;5.702;2023-04-01T06:42:57;11.65;;;7.00;;
76786;SDS011;65739;51.482;5.702;2023-04-01T06:45:36;10.80;;;6.22;;
76786;SDS011;65739;51.482;5.702;2023-04-01T06:55:51;10.90;;;5.53;;
76786;SDS011;65739;51.482;5.702;2023-04-01T06:58:27;8.75;;;6.03;;
76786;SDS011;65739;51.482;5.702;2023-04-01T07:00:59;10.10;;;6.50;;
76786;SDS011;65739;51.482;5.702;2023-04-01T07:03:47;11.35;;;6.50;;
76786;SDS011;65739;51.482;5.702;2023-04-01T07:08:51;12.07;;;6.72;;
76786;SDS011;65739;51.482;5.702;2023-04-01T07:11:25;12.93;;;7.90;;
76786;SDS011;65739;51.482;5.702;2023-04-01T07:13:59;12.65;;;8.00;;
76786;SDS011;65739;51.482;5.702;2023-04-01T07:16:34;15.57;;;9.00;;
76786;SDS011;65739;51.482;5.702;2023-04-01T07:24:54;18.02;;;10.27;;
76786;SDS011;65739;51.482;5.702;2023-04-01T07:27:19;19.38;;;9.77;;
76786;SDS011;65739;51.482;5.702;2023-04-01T07:29:45;17.45;;;11.20;;
76786;SDS011;65739;51.482;5.702;2023-04-01T07:32:13;17.77;;;10.68;;
76786;SDS011;65739;51.482;5.702;2023-04-01T07:37:40;20.48;;;10.65;;
76786;SDS011;65739;51.482;5.702;2023-04-01T07:43:28;19.42;;;11.23;;
76786;SDS011;65739;51.482;5.702;2023-04-01T07:57:35;27.73;;;12.90;;
76786;SDS011;65739;51.482;5.702;2023-04-01T08:00:14;22.10;;;13.18;;
76786;SDS011;65739;51.482;5.702;2023-04-01T08:02:58;20.75;;;14.05;;
76786;SDS011;65739;51.482;5.702;2023-04-01T08:11:13;28.13;;;15.32;;
76786;SDS011;65739;51.482;5.702;2023-04-01T08:14:11;26.33;;;15.07;;
76786;SDS011;65739;51.482;5.702;2023-04-01T08:17:10;25.33;;;14.88;;
76786;SDS011;65739;51.482;5.702;2023-04-01T08:22:58;27.20;;;14.63;;
76786;SDS011;65739;51.482;5.702;2023-04-01T08:25:28;28.20;;;14.65;;
76786;SDS011;65739;51.482;5.702;2023-04-01T08:33:13;24.45;;;13.07;;
76786;SDS011;65739;51.482;5.702;2023-04-01T08:35:49;23.92;;;14.25;;
76786;SDS011;65739;51.482;5.702;2023-04-01T08:38:31;22.98;;;13.25;;
76786;SDS011;65739;51.482;5.702;2023-04-01T08:46:29;18.85;;;12.52;;
76786;SDS011;65739;51.482;5.702;2023-04-01T08:49:10;20.75;;;12.45;;
76786;SDS011;65739;51.482;5.702;2023-04-01T08:54:43;20.90;;;11.10;;
76786;SDS011;65739;51.482;5.702;2023-04-01T09:00:19;20.30;;;12.68;;
76786;SDS011;65739;51.482;5.702;2023-04-01T09:02:50;22.25;;;12.27;;
76786;SDS011;65739;51.482;5.702;2023-04-01T09:05:58;24.35;;;14.65;;
76786;SDS011;65739;51.482;5.702;2023-04-01T09:08:37;23.88;;;12.77;;
76786;SDS011;65739;51.482;5.702;2023-04-01T09:14:22;20.13;;;12.80;;
76786;SDS011;65739;51.482;5.702;2023-04-01T09:20:03;23.40;;;12.77;;
76786;SDS011;65739;51.482;5.702;2023-04-01T09:22:50;22.65;;;12.80;;
76786;SDS011;65739;51.482;5.702;2023-04-01T09:29:10;21.52;;;11.90;;
76786;SDS011;65739;51.482;5.702;2023-04-01T09:36:43;16.63;;;10.43;;
76786;SDS011;65739;51.482;5.702;2023-04-01T09:39:31;16.63;;;8.85;;
76786;SDS011;65739;51.482;5.702;2023-04-01T09:45:20;15.57;;;10.27;;
76786;SDS011;65739;51.482;5.702;2023-04-01T09:50:47;18.02;;;9.65;;
76786;SDS011;65739;51.482;5.702;2023-04-01T09:56:39;17.40;;;8.88;;
76786;SDS011;65739;51.482;5.702;2023-04-01T09:59:56;11.00;;;7.55;;
76786;SDS011;65739;51.482;5.702;2023-04-01T10:02:53;15.20;;;7.10;;
76786;SDS011;65739;51.482;5.702;2023-04-01T10:05:50;10.68;;;7.07;;
76786;SDS011;65739;51.482;5.702;2023-04-01T10:08:51;8.52;;;6.85;;
76786;SDS011;65739;51.482;5.702;2023-04-01T10:17:24;7.13;;;5.82;;
76786;SDS011;65739;51.482;5.702;2023-04-01T10:23:00;8.20;;;6.45;;
76786;SDS011;65739;51.482;5.702;2023-04-01T10:28:30;7.47;;;6.72;;
76786;SDS011;65739;51.482;5.702;2023-04-01T10:36:54;10.98;;;8.27;;
76786;SDS011;65739;51.482;5.702;2023-04-01T10:42:05;12.40;;;8.50;;
76786;SDS011;65739;51.482;5.702;2023-04-01T10:57:12;12.23;;;9.18;;
76786;SDS011;65739;51.482;5.702;2023-04-01T11:21:15;15.07;;;11.23;;
76786;SDS011;65739;51.482;5.702;2023-04-01T11:32:59;18.58;;;11.30;;
76786;SDS011;65739;51.482;5.702;2023-04-01T11:35:52;18.20;;;10.77;;
76786;SDS011;65739;51.482;5.702;2023-04-01T11:57:58;16.88;;;11.32;;
76786;SDS011;65739;51.482;5.702;2023-04-01T12:09:04;17.88;;;11.35;;
76786;SDS011;65739;51.482;5.702;2023-04-01T12:17:34;14.73;;;9.90;;
76786;SDS011;65739;51.482;5.702;2023-04-01T12:31:12;12.48;;;9.05;;
76786;SDS011;65739;51.482;5.702;2023-04-01T12:34:00;9.57;;;7.40;;
76786;SDS011;65739;51.482;5.702;2023-04-01T12:36:53;8.05;;;7.03;;
76786;SDS011;65739;51.482;5.702;2023-04-01T12:39:44;7.75;;;6.50;;
76786;SDS011;65739;51.482;5.702;2023-04-01T12:42:30;7.57;;;6.50;;
76786;SDS011;65739;51.482;5.702;2023-04-01T12:45:16;7.33;;;6.00;;
76786;SDS011;65739;51.482;5.702;2023-04-01T12:53:28;10.13;;;7.38;;
76786;SDS011;65739;51.482;5.702;2023-04-01T12:56:08;7.82;;;5.60;;
76786;SDS011;65739;51.482;5.702;2023-04-01T12:58:54;6.82;;;6.13;;
76786;SDS011;65739;51.482;5.702;2023-04-01T13:12:40;6.95;;;6.25;;
76786;SDS011;65739;51.482;5.702;2023-04-01T13:15:18;7.93;;;7.13;;
76786;SDS011;65739;51.482;5.702;2023-04-01T13:18:07;8.88;;;7.32;;
76786;SDS011;65739;51.482;5.702;2023-04-01T13:23:33;7.78;;;6.97;;
76786;SDS011;65739;51.482;5.702;2023-04-01T13:26:25;7.78;;;6.60;;
76786;SDS011;65739;51.482;5.702;2023-04-01T13:29:11;10.65;;;7.60;;
76786;SDS011;65739;51.482;5.702;2023-04-01T13:40:52;10.88;;;7.97;;
76786;SDS011;65739;51.482;5.702;2023-04-01T13:43:31;10.60;;;7.90;;
76786;SDS011;65739;51.482;5.702;2023-04-01T13:46:27;9.95;;;7.93;;
76786;SDS011;65739;51.482;5.702;2023-04-01T13:49:26;10.77;;;8.27;;
76786;SDS011;65739;51.482;5.702;2023-04-01T13:52:08;12.25;;;8.13;;
76786;SDS011;65739;51.482;5.702;2023-04-01T14:01:08;11.73;;;7.82;;
76786;SDS011;65739;51.482;5.702;2023-04-01T14:03:43;12.90;;;8.18;;
76786;SDS011;65739;51.482;5.702;2023-04-01T14:15:22;10.23;;;7.47;;
76786;SDS011;65739;51.482;5.702;2023-04-01T14:28:31;11.45;;;8.32;;
76786;SDS011;65739;51.482;5.702;2023-04-01T14:31:42;9.57;;;7.43;;
76786;SDS011;65739;51.482;5.702;2023-04-01T14:37:09;11.07;;;8.45;;
76786;SDS011;65739;51.482;5.702;2023-04-01T14:39:43;13.13;;;9.10;;
76786;SDS011;65739;51.482;5.702;2023-04-01T14:42:41;10.48;;;8.77;;
76786;SDS011;65739;51.482;5.702;2023-04-01T14:48:21;10.68;;;9.57;;
76786;SDS011;65739;51.482;5.702;2023-04-01T14:51:16;12.40;;;8.85;;
76786;SDS011;65739;51.482;5.702;2023-04-01T14:54:04;11.23;;;8.77;;
76786;SDS011;65739;51.482;5.702;2023-04-01T14:56:38;9.93;;;8.73;;
76786;SDS011;65739;51.482;5.702;2023-04-01T15:07:09;13.20;;;9.43;;
76786;SDS011;65739;51.482;5.702;2023-04-01T15:09:48;11.70;;;8.88;;
76786;SDS011;65739;51.482;5.702;2023-04-01T15:12:47;10.38;;;8.88;;
76786;SDS011;65739;51.482;5.702;2023-04-01T15:15:24;10.65;;;8.85;;
76786;SDS011;65739;51.482;5.702;2023-04-01T15:23:10;10.73;;;9.23;;
76786;SDS011;65739;51.482;5.702;2023-04-01T15:25:44;11.18;;;8.32;;
76786;SDS011;65739;51.482;5.702;2023-04-01T15:29:06;10.30;;;7.65;;
76786;SDS011;65739;51.482;5.702;2023-04-01T15:31:35;10.43;;;8.82;;
76786;SDS011;65739;51.482;5.702;2023-04-01T15:34:26;10.57;;;8.20;;
76786;SDS011;65739;51.482;5.702;2023-04-01T15:39:54;12.13;;;9.45;;
76786;SDS011;65739;51.482;5.702;2023-04-01T15:42:40;11.57;;;9.25;;
76786;SDS011;65739;51.482;5.702;2023-04-01T15:48:06;12.45;;;9.35;;
76786;SDS011;65739;51.482;5.702;2023-04-01T15:50:45;12.30;;;9.68;;
76786;SDS011;65739;51.482;5.702;2023-04-01T15:55:39;13.63;;;10.15;;
76786;SDS011;65739;51.482;5.702;2023-04-01T15:58:44;15.57;;;12.23;;
76786;SDS011;65739;51.482;5.702;2023-04-01T16:01:51;13.63;;;10.40;;
76786;SDS011;65739;51.482;5.702;2023-04-01T16:05:00;15.10;;;11.80;;
76786;SDS011;65739;51.482;5.702;2023-04-01T16:08:02;15.90;;;11.05;;
76786;SDS011;65739;51.482;5.702;2023-04-01T16:10:48;18.85;;;11.32;;
76786;SDS011;65739;51.482;5.702;2023-04-01T16:13:48;14.30;;;10.98;;
76786;SDS011;65739;51.482;5.702;2023-04-01T16:28:07;19.35;;;12.02;;
76786;SDS011;65739;51.482;5.702;2023-04-01T16:30:48;16.70;;;11.60;;
76786;SDS011;65739;51.482;5.702;2023-04-01T16:33:40;17.23;;;11.18;;
76786;SDS011;65739;51.482;5.702;2023-04-01T16:36:29;16.38;;;11.50;;
76786;SDS011;65739;51.482;5.702;2023-04-01T16:42:06;17.58;;;12.73;;
76786;SDS011;65739;51.482;5.702;2023-04-01T16:44:56;15.55;;;10.85;;
76786;SDS011;65739;51.482;5.702;2023-04-01T16:47:40;16.27;;;11.27;;
76786;SDS011;65739;51.482;5.702;2023-04-01T16:50:49;15.25;;;11.55;;
76786;SDS011;65739;51.482;5.702;2023-04-01T16:53:40;17.60;;;11.65;;
76786;SDS011;65739;51.482;5.702;2023-04-01T16:56:10;14.23;;;10.30;;
76786;SDS011;65739;51.482;5.702;2023-04-01T17:01:24;14.20;;;11.15;;
76786;SDS011;65739;51.482;5.702;2023-04-01T17:03:57;16.42;;;11.23;;
76786;SDS011;65739;51.482;5.702;2023-04-01T17:06:42;15.50;;;12.00;;
76786;SDS011;65739;51.482;5.702;2023-04-01T17:12:05;19.20;;;14.48;;
76786;SDS011;65739;51.482;5.702;2023-04-01T17:17:56;14.60;;;10.82;;
76786;SDS011;65739;51.482;5.702;2023-04-01T17:23:20;18.10;;;12.45;;
76786;SDS011;65739;51.482;5.702;2023-04-01T17:28:59;15.50;;;11.82;;
76786;SDS011;65739;51.482;5.702;2023-04-01T17:32:03;14.45;;;10.55;;
76786;SDS011;65739;51.482;5.702;2023-04-01T17:37:49;17.80;;;13.15;;
76786;SDS011;65739;51.482;5.702;2023-04-01T17:43:52;16.15;;;11.10;;
76786;SDS011;65739;51.482;5.702;2023-04-01T17:54:47;15.05;;;11.05;;
76786;SDS011;65739;51.482;5.702;2023-04-01T18:03:43;20.55;;;12.88;;
76786;SDS011;65739;51.482;5.702;2023-04-01T18:06:34;18.13;;;12.20;;
76786;SDS011;65739;51.482;5.702;2023-04-01T18:17:17;14.95;;;10.45;;
76786;SDS011;65739;51.482;5.702;2023-04-01T18:20:02;16.67;;;9.63;;
76786;SDS011;65739;51.482;5.702;2023-04-01T18:22:48;14.45;;;9.95;;
76786;SDS011;65739;51.482;5.702;2023-04-01T18:33:31;12.68;;;8.60;;
76786;SDS011;65739;51.482;5.702;2023-04-01T18:42:16;7.95;;;5.40;;
76786;SDS011;65739;51.482;5.702;2023-04-01T18:47:43;7.07;;;5.28;;
76786;SDS011;65739;51.482;5.702;2023-04-01T18:50:14;5.55;;;4.82;;
76786;SDS011;65739;51.482;5.702;2023-04-01T18:53:25;6.78;;;5.57;;
76786;SDS011;65739;51.482;5.702;2023-04-01T18:55:55;6.82;;;5.43;;
76786;SDS011;65739;51.482;5.702;2023-04-01T18:58:35;12.95;;;7.60;;
76786;SDS011;65739;51.482;5.702;2023-04-01T19:01:25;8.88;;;6.07;;
76786;SDS011;65739;51.482;5.702;2023-04-01T19:09:18;11.30;;;6.90;;
76786;SDS011;65739;51.482;5.702;2023-04-01T19:11:52;9.00;;;6.35;;
76786;SDS011;65739;51.482;5.702;2023-04-01T19:17:10;7.55;;;5.65;;
76786;SDS011;65739;51.482;5.702;2023-04-01T19:19:52;12.50;;;7.00;;
76786;SDS011;65739;51.482;5.702;2023-04-01T19:25:02;8.95;;;6.80;;
76786;SDS011;65739;51.482;5.702;2023-04-01T19:27:44;9.55;;;7.22;;
76786;SDS011;65739;51.482;5.702;2023-04-01T19:30:21;10.25;;;7.70;;
76786;SDS011;65739;51.482;5.702;2023-04-01T19:39:00;12.48;;;7.93;;
76786;SDS011;65739;51.482;5.702;2023-04-01T19:42:01;11.73;;;8.57;;
76786;SDS011;65739;51.482;5.702;2023-04-01T19:50:41;12.40;;;8.95;;
76786;SDS011;65739;51.482;5.702;2023-04-01T19:56:15;13.95;;;9.57;;
76786;SDS011;65739;51.482;5.702;2023-04-01T19:58:45;13.13;;;9.98;;
76786;SDS011;65739;51.482;5.702;2023-04-01T20:01:43;15.23;;;10.20;;
76786;SDS011;65739;51.482;5.702;2023-04-01T20:04:08;13.57;;;10.40;;
76786;SDS011;65739;51.482;5.702;2023-04-01T20:09:28;15.05;;;10.98;;
76786;SDS011;65739;51.482;5.702;2023-04-01T20:14:55;14.85;;;11.35;;
76786;SDS011;65739;51.482;5.702;2023-04-01T20:17:43;13.55;;;10.75;;
76786;SDS011;65739;51.482;5.702;2023-04-01T20:25:15;13.85;;;10.23;;
76786;SDS011;65739;51.482;5.702;2023-04-01T20:27:47;13.00;;;9.85;;
76786;SDS011;65739;51.482;5.702;2023-04-01T20:36:06;11.77;;;9.25;;
76786;SDS011;65739;51.482;5.702;2023-04-01T20:38:37;12.63;;;9.18;;
76786;SDS011;65739;51.482;5.702;2023-04-01T20:41:27;12.90;;;9.23;;
76786;SDS011;65739;51.482;5.702;2023-04-01T20:46:56;11.30;;;9.35;;
76786;SDS011;65739;51.482;5.702;2023-04-01T20:49:39;12.55;;;9.13;;
76786;SDS011;65739;51.482;5.702;2023-04-01T20:54:53;12.57;;;9.57;;
76786;SDS011;65739;51.482;5.702;2023-04-01T21:04:07;15.23;;;11.32;;
76786;SDS011;65739;51.482;5.702;2023-04-01T21:12:22;14.82;;;11.95;;
76786;SDS011;65739;51.482;5.702;2023-04-01T21:23:34;13.80;;;10.65;;
76786;SDS011;65739;51.482;5.702;2023-04-01T21:26:14;11.15;;;9.55;;
76786;SDS011;65739;51.482;5.702;2023-04-01T21:31:34;13.00;;;10.30;;
76786;SDS011;65739;51.482;5.702;2023-04-01T21:40:25;13.80;;;10.80;;
76786;SDS011;65739;51.482;5.702;2023-04-01T21:43:50;11.10;;;9.55;;
76786;SDS011;65739;51.482;5.702;2023-04-01T21:52:20;11.02;;;9.18;;
76786;SDS011;65739;51.482;5.702;2023-04-01T21:55:00;11.73;;;9.48;;
76786;SDS011;65739;51.482;5.702;2023-04-01T22:00:48;12.88;;;10.07;;
76786;SDS011;65739;51.482;5.702;2023-04-01T22:11:21;13.85;;;10.80;;
76786;SDS011;65739;51.482;5.702;2023-04-01T22:14:26;12.80;;;10.18;;
76786;SDS011;65739;51.482;5.702;2023-04-01T22:17:08;15.43;;;11.30;;
76786;SDS011;65739;51.482;5.702;2023-04-01T22:22:23;14.20;;;10.63;;
76786;SDS011;65739;51.482;5.702;2023-04-01T22:28:03;16.30;;;11.73;;
76786;SDS011;65739;51.482;5.702;2023-04-01T22:30:54;17.15;;;11.35;;
76786;SDS011;65739;51.482;5.702;2023-04-01T22:39:02;17.23;;;11.30;;
76786;SDS011;65739;51.482;5.702;2023-04-01T22:47:31;13.98;;;10.65;;
76786;SDS011;65739;51.482;5.702;2023-04-01T22:50:19;16.98;;;11.38;;
76786;SDS011;65739;51.482;5.702;2023-04-01T22:53:03;17.77;;;12.50;;
76786;SDS011;65739;51.482;5.702;2023-04-01T22:55:46;14.70;;;11.40;;
76786;SDS011;65739;51.482;5.702;2023-04-01T23:00:58;14.65;;;11.43;;
76786;SDS011;65739;51.482;5.702;2023-04-01T23:03:33;13.70;;;11.05;;
76786;SDS011;65739;51.482;5.702;2023-04-01T23:06:03;14.10;;;10.57;;
76786;SDS011;65739;51.482;5.702;2023-04-01T23:11:38;12.63;;;10.15;;
76786;SDS011;65739;51.482;5.702;2023-04-01T23:16:54;12.70;;;9.57;;
76786;SDS011;65739;51.482;5.702;2023-04-01T23:19:47;11.85;;;9.40;;
76786;SDS011;65739;51.482;5.702;2023-04-01T23:30:45;10.93;;;8.55;;
76786;SDS011;65739;51.482;5.702;2023-04-01T23:35:47;10.13;;;8.40;;
76786;SDS011;65739;51.482;5.702;2023-04-01T23:38:13;8.95;;;7.65;;
76786;SDS011;65739;51.482;5.702;2023-04-01T23:40:40;10.13;;;8.68;;
76786;SDS011;65739;51.482;5.702;2023-04-01T23:43:13;9.27;;;7.82;;
76786;SDS011;65739;51.482;5.702;2023-04-01T23:45:52;8.00;;;7.20;;
76786;SDS011;65739;51.482;5.702;2023-04-01T23:48:20;7.45;;;6.65;;
76786;SDS011;65739;51.482;5.702;2023-04-01T23:50:57;8.70;;;7.75;;
76786;SDS011;65739;51.482;5.702;2023-04-01T23:53:24;9.18;;;7.25;;
76786;SDS011;65739;51.482;5.702;2023-04-01T23:55:53;9.48;;;7.10;;